Time;durP1;ratioP1;P1;durP2;ratioP2;P2;SDS_P1;SDS_P2;PMS_P1;PMS_P2;Temp;Humidity;BMP_temperature;BMP_pressure;BME280_temperature;BME280_humidity;BME280_pressure;Samples;Min_cycle;Max_cycle;Signal;HPM_P1;HPM_P2
2023/01/17 00:03:28;;;;;;;0.00;0.00;;;;;;;-146.30;100.00;58188.94;10409325;28;20045;-82
2023/01/17 00:13:50;;;;;;;0.00;0.00;;;;;;;-146.30;100.00;58188.94;10432483;28;20099;-83
2023/01/17 01:38:22;;;;;;;0.00;0.00;;;;;;;-146.30;100.00;58188.94;10409619;28;20042;-82
2023/01/17 01:43:46;;;;;;;0.00;0.00;;;;;;;-146.30;100.00;58188.94;10398495;28;20045;-83
2023/01/17 01:49:03;;;;;;;0.00;0.00;;;;;;;-146.30;100.00;58188.94;10427409;28;20056;-83
2023/01/17 01:54:13;;;;;;;0.00;0.00;;;;;;;-146.30;100.00;58188.94;10438307;28;20072;-83
2023/01/17 01:59:18;;;;;;;0.00;0.00;;;;;;;-146.30;100.00;58188.94;10414275;28;20149;-83
2023/01/17 02:04:21;;;;;;;0.00;0.00;;;;;;;-146.30;100.00;58188.94;10444720;28;20045;-83
2023/01/17 02:09:23;;;;;;;0.00;0.00;;;;;;;-146.30;100.00;58188.94;10433043;28;20049;-82
2023/01/17 02:14:25;;;;;;;0.00;0.00;;;;;;;-146.30;100.00;58188.94;10402200;28;20053;-83
2023/01/17 02:19:47;;;;;;;0.00;0.00;;;;;;;-146.30;100.00;58188.94;10413141;28;20045;-83
2023/01/17 02:25:10;;;;;;;0.00;0.00;;;;;;;-146.30;100.00;58188.94;10423421;28;20551;-83
2023/01/17 02:30:26;;;;;;;0.00;0.00;;;;;;;-146.30;100.00;58188.94;10399754;28;20100;-82
2023/01/17 02:35:57;;;;;;;0.00;0.00;;;;;;;-146.30;100.00;58188.94;10395938;28;20119;-84
2023/01/17 02:41:02;;;;;;;;;;;;;;;-146.30;100.00;58188.94;10439616;28;20049;-84
2023/01/17 02:46:03;;;;;;;0.00;0.00;;;;;;;-146.30;100.00;58188.94;10447858;28;20020;-84
2023/01/17 02:51:25;;;;;;;0.00;0.00;;;;;;;-146.30;100.00;58188.94;10459750;28;20053;-83
2023/01/17 02:56:43;;;;;;;0.00;0.00;;;;;;;-146.30;100.00;58188.94;10433848;28;20099;-83
2023/01/17 03:02:03;;;;;;;0.00;0.00;;;;;;;-146.30;100.00;58188.94;10425270;28;20048;-83
2023/01/17 03:07:15;;;;;;;0.00;0.00;;;;;;;-146.30;100.00;58188.94;10457875;28;20464;-83
2023/01/17 03:12:19;;;;;;;0.00;0.00;;;;;;;-146.30;100.00;58188.94;10432556;28;20037;-82
2023/01/17 03:17:23;;;;;;;0.00;0.00;;;;;;;-146.30;100.00;58188.94;10407154;28;20045;-83
2023/01/17 03:22:25;;;;;;;0.00;0.00;;;;;;;-146.30;100.00;58188.94;10410943;28;20053;-83
2023/01/17 03:27:26;;;;;;;0.00;0.00;;;;;;;-146.30;100.00;58188.94;10419661;28;20053;-83
2023/01/17 03:32:28;;;;;;;0.00;0.00;;;;;;;-146.30;100.00;58188.94;10425882;28;20515;-83
2023/01/17 03:37:30;;;;;;;0.00;0.00;;;;;;;-146.30;100.00;58188.94;10410609;28;20448;-83
2023/01/17 03:42:31;;;;;;;0.32;0.20;;;;;;;-146.30;100.00;58188.94;10416750;28;20042;-83
2023/01/17 03:47:34;;;;;;;1.98;0.63;;;;;;;-146.30;100.00;58188.94;10415553;28;20092;-83
2023/01/17 03:52:35;;;;;;;0.00;0.00;;;;;;;-146.30;100.00;58188.94;10420559;28;20140;-83
2023/01/17 03:57:37;;;;;;;0.00;0.00;;;;;;;-146.30;100.00;58188.94;10430849;28;20044;-82
2023/01/17 04:02:39;;;;;;;0.00;0.00;;;;;;;-146.30;100.00;58188.94;10421724;28;20041;-84
2023/01/17 04:07:41;;;;;;;0.00;0.00;;;;;;;-146.30;100.00;58188.94;10404929;28;20132;-83
2023/01/17 04:12:43;;;;;;;0.00;0.00;;;;;;;-146.30;100.00;58188.94;10400880;28;20048;-83
2023/01/17 04:17:44;;;;;;;0.00;0.00;;;;;;;-146.30;100.00;58188.94;10401728;28;20547;-83
2023/01/17 04:22:46;;;;;;;0.00;0.00;;;;;;;-146.30;100.00;58188.94;10421049;28;20119;-83
2023/01/17 04:27:47;;;;;;;0.10;0.10;;;;;;;-146.30;100.00;58188.94;10421710;28;20510;-83
2023/01/17 04:32:49;;;;;;;0.00;0.00;;;;;;;-146.30;100.00;58188.94;10418518;28;20080;-82
2023/01/17 04:37:51;;;;;;;0.00;0.00;;;;;;;-146.30;100.00;58188.94;10429915;28;20037;-83
2023/01/17 04:42:53;;;;;;;0.00;0.00;;;;;;;-146.30;100.00;58188.94;10411962;28;20136;-82
2023/01/17 04:47:54;;;;;;;0.00;0.00;;;;;;;-146.30;100.00;58188.94;10424667;28;20041;-82
2023/01/17 04:52:56;;;;;;;0.00;0.00;;;;;;;-146.30;100.00;58188.94;10426655;28;20049;-82
2023/01/17 04:57:57;;;;;;;0.00;0.00;;;;;;;-146.30;100.00;58188.94;10406781;28;20502;-82
2023/01/17 05:02:59;;;;;;;0.05;0.05;;;;;;;-146.30;100.00;58188.94;10394154;28;20473;-83
2023/01/17 05:08:01;;;;;;;0.00;0.00;;;;;;;-146.30;100.00;58188.94;10395258;28;20080;-82
2023/01/17 05:13:03;;;;;;;0.00;0.00;;;;;;;-146.30;100.00;58188.94;10411675;28;20081;-83
2023/01/17 05:18:07;;;;;;;0.00;0.00;;;;;;;-146.30;100.00;58188.94;10420422;28;20103;-83
2023/01/17 05:23:09;;;;;;;0.00;0.00;;;;;;;-146.30;100.00;58188.94;10416378;28;20484;-83
2023/01/17 05:28:12;;;;;;;0.00;0.00;;;;;;;-146.30;100.00;58188.94;10396567;28;20065;-84
2023/01/17 05:33:14;;;;;;;0.00;0.00;;;;;;;-146.30;100.00;58188.94;10409963;28;20045;-83
2023/01/17 05:38:15;;;;;;;0.28;0.28;;;;;;;-146.30;100.00;58188.94;10411188;28;20128;-83
2023/01/17 05:43:17;;;;;;;0.10;0.10;;;;;;;-146.30;100.00;58188.94;10413572;28;20041;-83
2023/01/17 05:48:21;;;;;;;0.00;0.00;;;;;;;-146.30;100.00;58188.94;10436252;28;20049;-82
2023/01/17 05:53:22;;;;;;;1.35;0.55;;;;;;;-146.30;100.00;58188.94;10414172;28;20045;-82
2023/01/17 05:58:24;;;;;;;0.00;0.00;;;;;;;-146.30;100.00;58188.94;10411509;28;20092;-89
2023/01/17 06:03:26;;;;;;;0.63;0.30;;;;;;;-146.30;100.00;58188.94;10390534;28;20056;-89
2023/01/17 06:08:27;;;;;;;0.10;0.10;;;;;;;-146.30;100.00;58188.94;10405241;28;20041;-90
2023/01/17 06:13:29;;;;;;;0.00;0.00;;;;;;;-146.30;100.00;58188.94;10419954;28;20050;-89
2023/01/17 06:18:31;;;;;;;0.03;0.03;;;;;;;-146.30;100.00;58188.94;10420951;28;20382;-89
2023/01/17 06:23:32;;;;;;;0.10;0.10;;;;;;;-146.30;100.00;58188.94;10410888;28;20408;-89
2023/01/17 06:28:34;;;;;;;0.35;0.30;;;;;;;-146.30;100.00;58188.94;10423017;28;20076;-89
2023/01/17 06:33:36;;;;;;;0.10;0.10;;;;;;;-146.30;100.00;58188.94;10432452;28;20168;-90
2023/01/17 06:38:37;;;;;;;0.00;0.00;;;;;;;-146.30;100.00;58188.94;10438606;28;20115;-89
2023/01/17 06:43:39;;;;;;;1.15;0.43;;;;;;;-146.30;100.00;58188.94;10424786;28;20453;-90
2023/01/17 06:48:42;;;;;;;0.00;0.00;;;;;;;-146.30;100.00;58188.94;10419694;28;20045;-91
2023/01/17 06:53:44;;;;;;;0.00;0.00;;;;;;;-146.30;100.00;58188.94;10415313;28;20072;-89
2023/01/17 06:58:49;;;;;;;0.45;0.45;;;;;;;-146.30;100.00;58188.94;10453883;28;20033;-89
2023/01/17 07:03:51;;;;;;;0.00;0.00;;;;;;;-146.30;100.00;58188.94;10430919;28;20068;-82
2023/01/17 07:08:54;;;;;;;0.00;0.00;;;;;;;-146.30;100.00;58188.94;10425979;28;20063;-82
2023/01/17 07:13:56;;;;;;;0.00;0.00;;;;;;;-146.30;100.00;58188.94;10419512;28;20045;-82
2023/01/17 07:18:58;;;;;;;0.00;0.00;;;;;;;-146.30;100.00;58188.94;10416082;28;20054;-82
2023/01/17 07:23:59;;;;;;;0.20;0.20;;;;;;;-146.30;100.00;58188.94;10425601;28;20037;-82
2023/01/17 07:29:01;;;;;;;0.00;0.00;;;;;;;-146.30;100.00;58188.94;10415146;28;20065;-83
2023/01/17 07:34:03;;;;;;;0.00;0.00;;;;;;;-146.30;100.00;58188.94;10414197;28;20096;-81
2023/01/17 07:39:04;;;;;;;0.38;0.22;;;;;;;-146.30;100.00;58188.94;10415198;28;20052;-81
2023/01/17 07:44:09;;;;;;;0.10;0.10;;;;;;;-146.30;100.00;58188.94;10418974;28;20045;-82
2023/01/17 07:49:10;;;;;;;0.10;0.10;;;;;;;-146.30;100.00;58188.94;10417334;28;20029;-80
2023/01/17 07:54:12;;;;;;;0.32;0.08;;;;;;;-146.30;100.00;58188.94;10407381;28;20069;-81
2023/01/17 07:59:13;;;;;;;0.20;0.20;;;;;;;-146.30;100.00;58188.94;10399130;28;20455;-81
2023/01/17 08:04:15;;;;;;;0.45;0.45;;;;;;;-146.30;100.00;58188.94;10415079;28;20107;-80
2023/01/17 08:09:19;;;;;;;0.65;0.55;;;;;;;-146.30;100.00;58188.94;10419989;28;20050;-80
2023/01/17 08:14:21;;;;;;;0.10;0.10;;;;;;;-146.30;100.00;58188.94;10393876;28;20471;-81
2023/01/17 08:19:23;;;;;;;0.10;0.10;;;;;;;-146.30;100.00;58188.94;10408737;28;20084;-81
2023/01/17 08:24:24;;;;;;;0.40;0.40;;;;;;;-146.30;100.00;58188.94;10410306;28;20504;-81
2023/01/17 08:29:26;;;;;;;0.00;0.00;;;;;;;-146.30;100.00;58188.94;10412325;28;20030;-81
2023/01/17 08:34:27;;;;;;;1.45;0.57;;;;;;;-146.30;100.00;58188.94;10415308;28;20045;-82
2023/01/17 08:39:29;;;;;;;0.73;0.73;;;;;;;-146.30;100.00;58188.94;10411952;28;20099;-82
2023/01/17 08:44:31;;;;;;;0.32;0.32;;;;;;;-146.30;100.00;58188.94;10395662;28;20045;-82
2023/01/17 08:49:32;;;;;;;0.60;0.60;;;;;;;-146.30;100.00;58188.94;10438909;28;20034;-83
2023/01/17 08:54:34;;;;;;;0.13;0.10;;;;;;;-146.30;100.00;58188.94;10423379;28;20115;-83
2023/01/17 08:59:36;;;;;;;0.93;0.70;;;;;;;-146.30;100.00;58188.94;10417306;28;20040;-83
2023/01/17 09:04:38;;;;;;;0.20;0.20;;;;;;;-146.30;100.00;58188.94;10418526;28;20080;-88
2023/01/17 09:09:41;;;;;;;0.80;0.80;;;;;;;-146.30;100.00;58188.94;10410263;28;20088;-88
2023/01/17 09:14:44;;;;;;;0.45;0.38;;;;;;;-146.30;100.00;58188.94;10407271;28;20041;-87
2023/01/17 09:19:47;;;;;;;1.00;0.80;;;;;;;-146.30;100.00;58188.94;10408584;28;20041;-87
2023/01/17 09:24:49;;;;;;;0.38;0.38;;;;;;;-146.30;100.00;58188.94;10402907;28;20140;-89
2023/01/17 09:29:50;;;;;;;0.22;0.22;;;;;;;-146.30;100.00;58188.94;10388479;28;20092;-88
2023/01/17 09:34:52;;;;;;;2.58;2.05;;;;;;;-146.30;100.00;58188.94;10390474;28;20069;-89
2023/01/17 09:39:56;;;;;;;0.63;0.63;;;;;;;-146.30;100.00;58188.94;10395613;28;20049;-89
2023/01/17 09:44:58;;;;;;;3.05;0.98;;;;;;;-146.30;100.00;58188.94;10442393;28;20060;-88
2023/01/17 09:50:07;;;;;;;0.88;0.88;;;;;;;-146.30;100.00;58188.94;10417972;28;20140;-87
2023/01/17 09:55:14;;;;;;;0.53;0.53;;;;;;;-146.30;100.00;58188.94;10395240;28;20540;-87
2023/01/17 10:00:59;;;;;;;1.95;0.63;;;;;;;-146.30;100.00;58188.94;10408916;28;20485;-86
2023/01/17 10:06:36;;;;;;;0.50;0.50;;;;;;;-146.30;100.00;58188.94;10416492;28;20061;-87
2023/01/17 10:11:54;;;;;;;6.35;1.13;;;;;;;-146.30;100.00;58188.94;10394158;28;20050;-87
2023/01/17 10:16:59;;;;;;;1.35;0.95;;;;;;;-146.30;100.00;58188.94;10406713;28;20061;-87
2023/01/17 10:22:23;;;;;;;2.35;0.95;;;;;;;-146.30;100.00;58188.94;10405445;28;20041;-87
2023/01/17 10:27:57;;;;;;;0.38;0.38;;;;;;;-146.30;100.00;58188.94;10394270;28;20088;-86
2023/01/17 10:33:04;;;;;;;0.20;0.20;;;;;;;-146.30;100.00;58188.94;10403459;28;20084;-86
2023/01/17 10:38:13;;;;;;;0.63;0.43;;;;;;;-146.30;100.00;58188.94;10404476;28;20084;-86
2023/01/17 10:43:35;;;;;;;0.60;0.60;;;;;;;-146.30;100.00;58188.94;10404853;28;20063;-86
2023/01/17 10:48:41;;;;;;;0.52;0.52;;;;;;;-146.30;100.00;58188.94;10423583;28;20065;-80
2023/01/17 10:54:00;;;;;;;0.47;0.47;;;;;;;-146.30;100.00;58188.94;10395138;28;20064;-80
2023/01/17 10:59:20;;;;;;;0.30;0.15;;;;;;;-146.30;100.00;58188.94;10390592;28;20497;-80
2023/01/17 11:04:39;;;;;;;0.63;0.63;;;;;;;-146.30;100.00;58188.94;10421648;28;20378;-80
2023/01/17 11:09:43;;;;;;;6.22;1.35;;;;;;;-146.30;100.00;58188.94;10399111;28;20056;-81
2023/01/17 11:15:02;;;;;;;3.53;1.88;;;;;;;-146.30;100.00;58188.94;10416328;28;20045;-81
2023/01/17 11:20:22;;;;;;;0.15;0.15;;;;;;;-146.30;100.00;58188.94;10401072;28;20095;-81
2023/01/17 11:25:25;;;;;;;0.17;0.17;;;;;;;-146.30;100.00;58188.94;10417918;28;20052;-81
2023/01/17 11:30:28;;;;;;;0.25;0.20;;;;;;;-146.30;100.00;58188.94;10404849;28;20120;-81
2023/01/17 11:35:31;;;;;;;0.32;0.32;;;;;;;-146.30;100.00;58188.94;10414300;28;20137;-82
2023/01/17 11:40:36;;;;;;;0.10;0.10;;;;;;;-146.30;100.00;58188.94;10413300;28;20042;-81
2023/01/17 11:45:39;;;;;;;0.95;0.70;;;;;;;-146.30;100.00;58188.94;10403308;28;20056;-81
2023/01/17 11:50:43;;;;;;;0.20;0.20;;;;;;;-146.30;100.00;58188.94;10420715;28;20056;-82
2023/01/17 11:56:17;;;;;;;0.10;0.10;;;;;;;-146.30;100.00;58188.94;10460413;28;20496;-80
2023/01/17 12:01:40;;;;;;;0.30;0.30;;;;;;;-146.30;100.00;58188.94;10386442;28;20072;-81
2023/01/17 12:07:30;;;;;;;0.13;0.13;;;;;;;-146.30;100.00;58188.94;10430999;28;20045;-82
2023/01/17 12:18:49;;;;;;;0.75;0.47;;;;;;;-146.30;100.00;58188.94;10398117;28;20104;-81
2023/01/17 12:24:03;;;;;;;0.30;0.25;;;;;;;-146.30;100.00;58188.94;10400529;28;20060;-83
2023/01/17 12:29:44;;;;;;;0.52;0.45;;;;;;;-146.30;100.00;58188.94;10417205;28;20056;-82
2023/01/17 12:34:54;;;;;;;0.50;0.37;;;;;;;-146.30;100.00;58188.94;10391034;28;20049;-82
2023/01/17 12:39:58;;;;;;;;;;;;;;;-146.30;100.00;58188.94;10406615;28;20080;-82
2023/01/17 12:45:06;;;;;;;0.00;0.00;;;;;;;-146.30;100.00;58188.94;10397346;28;19932;-81
2023/01/17 12:50:25;;;;;;;0.13;0.13;;;;;;;-146.30;100.00;58188.94;10386869;28;20049;-81
2023/01/17 12:55:44;;;;;;;0.10;0.10;;;;;;;-146.30;100.00;58188.94;10413991;28;20054;-81
2023/01/17 13:00:53;;;;;;;0.00;0.00;;;;;;;-146.30;100.00;58188.94;10394472;28;20467;-81
2023/01/17 13:05:56;;;;;;;0.00;0.00;;;;;;;-146.30;100.00;58188.94;10421676;28;20045;-80
2023/01/17 13:11:18;;;;;;;0.55;0.10;;;;;;;-146.30;100.00;58188.94;10413160;28;20435;-81
2023/01/17 13:16:29;;;;;;;0.00;0.00;;;;;;;-146.30;100.00;58188.94;10403770;28;20472;-80
2023/01/17 13:21:35;;;;;;;0.00;0.00;;;;;;;-146.30;100.00;58188.94;10428815;28;20484;-81
2023/01/17 13:26:55;;;;;;;0.00;0.00;;;;;;;-146.30;100.00;58188.94;10408529;28;20478;-81
2023/01/17 13:32:31;;;;;;;0.00;0.00;;;;;;;-146.30;100.00;58188.94;10421703;28;20057;-81
2023/01/17 13:37:48;;;;;;;0.00;0.00;;;;;;;-146.30;100.00;58188.94;10399933;28;20045;-81
2023/01/17 13:42:59;;;;;;;0.00;0.00;;;;;;;-146.30;100.00;58188.94;10419127;28;20065;-81
2023/01/17 13:48:17;;;;;;;0.00;0.00;;;;;;;-146.30;100.00;58188.94;10408213;28;20048;-80
2023/01/17 13:53:27;;;;;;;0.10;0.10;;;;;;;-146.30;100.00;58188.94;10406378;28;20045;-81
2023/01/17 13:58:53;;;;;;;0.00;0.00;;;;;;;-146.30;100.00;58188.94;10421567;28;20102;-80
2023/01/17 14:04:02;;;;;;;0.00;0.00;;;;;;;-146.30;100.00;58188.94;10425610;28;20585;-80
2023/01/17 14:09:07;;;;;;;0.00;0.00;;;;;;;-146.30;100.00;58188.94;10411162;28;20589;-80
2023/01/17 14:14:40;;;;;;;0.00;0.00;;;;;;;-146.30;100.00;58188.94;10429706;28;20037;-81
2023/01/17 14:19:44;;;;;;;0.63;0.25;;;;;;;-146.30;100.00;58188.94;10450446;28;20061;-80
2023/01/17 14:25:13;;;;;;;0.00;0.00;;;;;;;-146.30;100.00;58188.94;10423148;28;20054;-80
2023/01/17 14:30:21;;;;;;;2.83;0.35;;;;;;;-146.30;100.00;58188.94;10399054;28;20555;-80
2023/01/17 14:35:26;;;;;;;2.03;0.30;;;;;;;-146.30;100.00;58188.94;10412523;28;20111;-81
2023/01/17 14:40:31;;;;;;;0.00;0.00;;;;;;;-146.30;100.00;58188.94;10417369;28;20079;-80
2023/01/17 14:45:34;;;;;;;0.00;0.00;;;;;;;-146.30;100.00;58188.94;10414795;28;20075;-80
2023/01/17 14:50:38;;;;;;;0.00;0.00;;;;;;;-146.30;100.00;58188.94;10418176;28;20485;-81
2023/01/17 14:55:48;;;;;;;0.00;0.00;;;;;;;-146.30;100.00;58188.94;10409292;28;20421;-80
2023/01/17 15:01:11;;;;;;;0.00;0.00;;;;;;;-146.30;100.00;58188.94;10422064;28;20099;-80
2023/01/17 15:06:26;;;;;;;0.00;0.00;;;;;;;-146.30;100.00;58188.94;10405648;28;20049;-80
2023/01/17 15:11:34;;;;;;;0.10;0.10;;;;;;;-146.30;100.00;58188.94;10427607;28;20400;-80
2023/01/17 15:16:37;;;;;;;0.00;0.00;;;;;;;-146.30;100.00;58188.94;10427379;28;20445;-80
2023/01/17 15:21:41;;;;;;;0.00;0.00;;;;;;;-146.30;100.00;58188.94;10427566;28;20049;-80
2023/01/17 15:26:44;;;;;;;1.48;0.63;;;;;;;-146.30;100.00;58188.94;10399958;28;20080;-81
2023/01/17 15:31:48;;;;;;;0.00;0.00;;;;;;;-146.30;100.00;58188.94;10430100;28;20087;-81
2023/01/17 15:36:51;;;;;;;0.00;0.00;;;;;;;-146.30;100.00;58188.94;10432964;28;20509;-80
2023/01/17 15:41:55;;;;;;;0.00;0.00;;;;;;;-146.30;100.00;58188.94;10427439;28;20374;-80
2023/01/17 15:46:57;;;;;;;0.00;0.00;;;;;;;-146.30;100.00;58188.94;10415947;28;20046;-80
2023/01/17 15:52:03;;;;;;;0.30;0.30;;;;;;;-146.30;100.00;58188.94;10404912;28;20050;-80
2023/01/17 15:57:16;;;;;;;0.00;0.00;;;;;;;-146.30;100.00;58188.94;10428636;28;20049;-80
2023/01/17 16:02:54;;;;;;;0.00;0.00;;;;;;;-146.30;100.00;58188.94;10415280;28;20448;-81
2023/01/17 16:08:17;;;;;;;0.00;0.00;;;;;;;-146.30;100.00;58188.94;10407784;28;20041;-80
2023/01/17 16:13:19;;;;;;;0.00;0.00;;;;;;;-146.30;100.00;58188.94;10388517;28;20053;-80
2023/01/17 16:18:24;;;;;;;0.20;0.20;;;;;;;-146.30;100.00;58188.94;10426033;28;20140;-81
2023/01/17 16:23:27;;;;;;;0.00;0.00;;;;;;;-146.30;100.00;58188.94;10428031;28;20455;-81
2023/01/17 16:28:28;;;;;;;0.00;0.00;;;;;;;-146.30;100.00;58188.94;10398410;28;20080;-81
2023/01/17 16:33:30;;;;;;;0.10;0.10;;;;;;;-146.30;100.00;58188.94;10414887;28;20080;-80
2023/01/17 16:38:32;;;;;;;0.15;0.10;;;;;;;-146.30;100.00;58188.94;10414219;28;20595;-80
2023/01/17 16:43:33;;;;;;;0.38;0.38;;;;;;;-146.30;100.00;58188.94;10414189;28;20037;-80
2023/01/17 16:48:36;;;;;;;0.00;0.00;;;;;;;-146.30;100.00;58188.94;10426067;28;20038;-81
2023/01/17 16:53:37;;;;;;;0.00;0.00;;;;;;;-146.30;100.00;58188.94;10435849;28;20041;-80
2023/01/17 16:58:41;;;;;;;0.00;0.00;;;;;;;-146.30;100.00;58188.94;10411897;28;20187;-80
2023/01/17 17:03:43;;;;;;;0.10;0.10;;;;;;;-146.30;100.00;58188.94;10426759;28;20045;-84
2023/01/17 17:08:46;;;;;;;0.00;0.00;;;;;;;-146.30;100.00;58188.94;10412736;28;20050;-84
2023/01/17 17:13:49;;;;;;;1.50;0.90;;;;;;;-146.30;100.00;58188.94;10424712;28;20053;-84
2023/01/17 17:18:57;;;;;;;0.00;0.00;;;;;;;-146.30;100.00;58188.94;10413943;28;20453;-84
2023/01/17 17:24:00;;;;;;;0.60;0.60;;;;;;;-146.30;100.00;58188.94;10411829;28;20045;-84
2023/01/17 17:29:03;;;;;;;0.20;0.20;;;;;;;-146.30;100.00;58188.94;10402424;28;20128;-84
2023/01/17 17:34:07;;;;;;;0.00;0.00;;;;;;;-146.30;100.00;58188.94;10407804;28;20080;-84
2023/01/17 17:39:13;;;;;;;0.10;0.10;;;;;;;-146.30;100.00;58188.94;10407573;28;20057;-85
2023/01/17 17:44:15;;;;;;;0.08;0.08;;;;;;;-146.30;100.00;58188.94;10411046;28;20046;-84
2023/01/17 17:49:21;;;;;;;0.00;0.00;;;;;;;-146.30;100.00;58188.94;10405932;28;20061;-84
2023/01/17 17:54:23;;;;;;;0.43;0.43;;;;;;;-146.30;100.00;58188.94;10419642;28;20041;-83
2023/01/17 17:59:25;;;;;;;0.00;0.00;;;;;;;-146.30;100.00;58188.94;10408988;28;20144;-83
2023/01/17 18:04:28;;;;;;;0.30;0.30;;;;;;;-146.30;100.00;58188.94;10409854;28;20040;-83
2023/01/17 18:09:30;;;;;;;0.43;0.43;;;;;;;-146.30;100.00;58188.94;10411665;28;20053;-83
2023/01/17 18:14:32;;;;;;;0.25;0.25;;;;;;;-146.30;100.00;58188.94;10410314;28;20072;-83
2023/01/17 18:19:34;;;;;;;0.03;0.03;;;;;;;-146.30;100.00;58188.94;10407121;28;20128;-83
2023/01/17 18:24:36;;;;;;;0.35;0.35;;;;;;;-146.30;100.00;58188.94;10405735;28;20492;-82
2023/01/17 18:29:37;;;;;;;0.40;0.38;;;;;;;-146.30;100.00;58188.94;10392481;28;20041;-82
2023/01/17 18:34:40;;;;;;;0.10;0.10;;;;;;;-146.30;100.00;58188.94;10388141;28;20049;-83
2023/01/17 18:39:42;;;;;;;0.10;0.10;;;;;;;-146.30;100.00;58188.94;10389581;28;20041;-82
2023/01/17 18:44:44;;;;;;;4.28;1.55;;;;;;;-146.30;100.00;58188.94;10405283;28;20357;-83
2023/01/17 18:49:45;;;;;;;0.08;0.08;;;;;;;-146.30;100.00;58188.94;10403011;28;20042;-82
2023/01/17 18:54:47;;;;;;;0.25;0.25;;;;;;;-146.30;100.00;58188.94;10409850;28;20052;-83
2023/01/17 18:59:49;;;;;;;0.28;0.28;;;;;;;-146.30;100.00;58188.94;10392435;28;20049;-82
2023/01/17 19:04:52;;;;;;;0.20;0.20;;;;;;;-146.30;100.00;58188.94;10421410;28;20045;-83
2023/01/17 19:09:53;;;;;;;1.85;0.70;;;;;;;-146.30;100.00;58188.94;10423963;28;20033;-82
2023/01/17 19:14:55;;;;;;;0.10;0.10;;;;;;;-146.30;100.00;58188.94;10420393;28;20042;-82
2023/01/17 19:19:57;;;;;;;0.10;0.10;;;;;;;-146.30;100.00;58188.94;10398668;28;20053;-82
2023/01/17 19:24:59;;;;;;;0.10;0.10;;;;;;;-146.30;100.00;58188.94;10389605;28;20405;-82
2023/01/17 19:30:01;;;;;;;0.00;0.00;;;;;;;-146.30;100.00;58188.94;10393641;28;20069;-81
2023/01/17 19:35:03;;;;;;;0.75;0.30;;;;;;;-146.30;100.00;58188.94;10405082;28;20054;-80
2023/01/17 19:40:07;;;;;;;0.40;0.40;;;;;;;-146.30;100.00;58188.94;10410720;28;20049;-80
2023/01/17 19:45:10;;;;;;;0.20;0.20;;;;;;;-146.30;100.00;58188.94;10410364;28;20507;-80
2023/01/17 19:50:11;;;;;;;1.17;0.47;;;;;;;-146.30;100.00;58188.94;10411637;28;20042;-80
2023/01/17 19:55:13;;;;;;;0.08;0.03;;;;;;;-146.30;100.00;58188.94;10397281;28;20116;-80
2023/01/17 20:00:16;;;;;;;0.65;0.65;;;;;;;-146.30;100.00;58188.94;10415265;28;20489;-80
2023/01/17 20:05:18;;;;;;;0.80;0.43;;;;;;;-146.30;100.00;58188.94;10392591;28;20045;-80
2023/01/17 20:10:20;;;;;;;4.70;1.83;;;;;;;-146.30;100.00;58188.94;10409037;28;20096;-81
2023/01/17 20:15:25;;;;;;;4.95;2.55;;;;;;;-146.30;100.00;58188.94;10412706;28;20079;-81
2023/01/17 20:20:31;;;;;;;3.28;1.88;;;;;;;-146.30;100.00;58188.94;10387673;28;20481;-80
2023/01/17 20:25:32;;;;;;;1.50;1.40;;;;;;;-146.30;100.00;58188.94;10395308;28;20045;-80
2023/01/17 20:30:34;;;;;;;1.17;0.88;;;;;;;-146.30;100.00;58188.94;10368947;28;20527;-80
2023/01/17 20:35:36;;;;;;;0.73;0.73;;;;;;;-146.30;100.00;58188.94;10392713;28;20105;-81
2023/01/17 20:40:37;;;;;;;0.00;0.00;;;;;;;-146.30;100.00;58188.94;10382363;28;21834;-80
2023/01/17 20:45:39;;;;;;;0.10;0.10;;;;;;;-146.30;100.00;58188.94;10388941;28;20108;-80
2023/01/17 20:50:40;;;;;;;0.40;0.40;;;;;;;-146.30;100.00;58188.94;10374435;28;20083;-79
2023/01/17 20:55:42;;;;;;;0.10;0.10;;;;;;;-146.30;100.00;58188.94;10393594;28;20041;-79
2023/01/17 21:00:44;;;;;;;0.43;0.40;;;;;;;-146.30;100.00;58188.94;10371007;28;20049;-79
2023/01/17 21:05:46;;;;;;;0.00;0.00;;;;;;;-146.30;100.00;58188.94;10397324;28;20567;-79
2023/01/17 21:10:48;;;;;;;0.22;0.22;;;;;;;-146.30;100.00;58188.94;10398631;28;20072;-79
2023/01/17 21:15:50;;;;;;;0.63;0.63;;;;;;;-146.30;100.00;58188.94;10399160;28;20071;-80
2023/01/17 21:20:52;;;;;;;9.82;6.60;;;;;;;-146.30;100.00;58188.94;10388741;28;20045;-79
2023/01/17 21:25:58;;;;;;;1.90;1.73;;;;;;;-146.30;100.00;58188.94;10393544;28;20382;-79
2023/01/17 21:31:00;;;;;;;3.72;2.30;;;;;;;-146.30;100.00;58188.94;10396763;28;20474;-79
2023/01/17 21:36:06;;;;;;;4.43;1.33;;;;;;;-146.30;100.00;58188.94;10393406;28;20052;-79
2023/01/17 21:41:08;;;;;;;1.75;1.08;;;;;;;-146.30;100.00;58188.94;10373169;28;20153;-79
2023/01/17 21:46:09;;;;;;;0.30;0.25;;;;;;;-146.30;100.00;58188.94;10390972;28;20180;-79
2023/01/17 21:51:11;;;;;;;0.20;0.20;;;;;;;-146.30;100.00;58188.94;10395926;28;20046;-79
2023/01/17 22:01:33;;;;;;;;;;;;;;;-146.30;100.00;58188.94;10399843;28;20042;-79
2023/01/17 22:06:38;;;;;;;0.75;0.75;;;;;;;-146.30;100.00;58188.94;10399102;28;19933;-80
2023/01/17 22:11:41;;;;;;;0.43;0.43;;;;;;;-146.30;100.00;58188.94;10390402;28;20084;-80
2023/01/17 22:16:43;;;;;;;2.22;1.58;;;;;;;-146.30;100.00;58188.94;10395949;28;20268;-79
2023/01/17 22:21:44;;;;;;;0.85;0.75;;;;;;;-146.30;100.00;58188.94;10396782;28;20046;-80
2023/01/17 22:26:46;;;;;;;2.80;1.63;;;;;;;-146.30;100.00;58188.94;10383595;28;20045;-80
2023/01/17 22:31:48;;;;;;;0.47;0.47;;;;;;;-146.30;100.00;58188.94;10370894;28;20129;-81
2023/01/17 22:36:49;;;;;;;0.15;0.15;;;;;;;-146.30;100.00;58188.94;10401962;28;20504;-80
2023/01/17 22:41:51;;;;;;;0.30;0.30;;;;;;;-146.30;100.00;58188.94;10414979;28;20059;-79
2023/01/17 22:46:53;;;;;;;1.23;0.57;;;;;;;-146.30;100.00;58188.94;10410484;28;20072;-79
2023/01/17 22:51:54;;;;;;;0.10;0.10;;;;;;;-146.30;100.00;58188.94;10412991;28;20539;-80
2023/01/17 22:56:56;;;;;;;0.00;0.00;;;;;;;-146.30;100.00;58188.94;10408688;28;20042;-79
2023/01/17 23:01:58;;;;;;;0.00;0.00;;;;;;;-146.30;100.00;58188.94;10415961;28;20042;-79
2023/01/17 23:07:00;;;;;;;0.20;0.20;;;;;;;-146.30;100.00;58188.94;10427224;28;20041;-79
2023/01/17 23:12:01;;;;;;;0.22;0.22;;;;;;;-146.30;100.00;58188.94;10417633;28;20553;-78
2023/01/17 23:22:26;;;;;;;0.00;0.00;;;;;;;-146.30;100.00;58188.94;10422484;28;20050;-79
2023/01/17 23:32:58;;;;;;;0.00;0.00;;;;;;;-146.30;100.00;58188.94;10407415;28;20044;-79
2023/01/17 23:43:23;;;;;;;0.20;0.20;;;;;;;-146.30;100.00;58188.94;10419193;28;20454;-79
2023/01/17 23:48:25;;;;;;;0.00;0.00;;;;;;;-146.30;100.00;58188.94;10432794;28;20045;-79
2023/01/17 23:53:27;;;;;;;0.75;0.75;;;;;;;-146.30;100.00;58188.94;10403488;28;20040;-78
2023/01/17 23:58:29;;;;;;;4.03;1.98;;;;;;;-146.30;100.00;58188.94;10453100;28;20064;-78
